createdAt,value
2019-03-30T00:01:51.231Z,26.13
2019-03-30T00:04:20.984Z,27.33
2019-03-30T00:06:50.994Z,30.43
2019-03-30T00:09:20.752Z,26.27
2019-03-30T00:11:51.059Z,29.77
2019-03-30T00:14:20.920Z,29.73
2019-03-30T00:16:50.690Z,27.63
2019-03-30T00:19:34.142Z,28.77
2019-03-30T00:21:52.052Z,31.60
2019-03-30T00:24:21.808Z,26.50
2019-03-30T00:26:51.555Z,32.33
2019-03-30T00:29:21.350Z,29.47
2019-03-30T00:31:51.122Z,30.63
2019-03-30T00:34:21.120Z,32.27
2019-03-30T00:36:50.892Z,30.23
2019-03-30T00:39:20.775Z,26.77
2019-03-30T00:41:50.806Z,29.87
2019-03-30T00:44:20.570Z,29.60
2019-03-30T00:46:50.342Z,27.57
2019-03-30T00:49:20.302Z,30.23
2019-03-30T00:51:50.109Z,27.00
2019-03-30T00:54:19.867Z,28.87
2019-03-30T00:56:49.654Z,29.70
2019-03-30T00:59:19.481Z,24.73
2019-03-30T01:01:49.276Z,26.33
2019-03-30T01:04:19.118Z,27.07
2019-03-30T01:06:48.915Z,28.17
2019-03-30T01:09:18.675Z,26.00
2019-03-30T01:11:48.465Z,24.60
2019-03-30T01:14:18.300Z,20.60
2019-03-30T01:16:48.084Z,24.60
2019-03-30T01:19:17.948Z,19.63
2019-03-30T01:21:47.753Z,20.23
2019-03-30T01:24:17.599Z,23.70
2019-03-30T01:26:47.397Z,17.47
2019-03-30T01:29:17.180Z,20.30
2019-03-30T01:31:47.211Z,19.67
2019-03-30T01:34:17.244Z,20.83
2019-03-30T01:36:47.324Z,21.03
2019-03-30T01:39:17.214Z,21.77
2019-03-30T01:41:47.249Z,19.07
2019-03-30T01:44:16.987Z,19.73
2019-03-30T01:46:46.815Z,22.53
2019-03-30T01:49:16.694Z,24.33
2019-03-30T01:51:46.507Z,28.20
2019-03-30T01:54:16.249Z,23.17
2019-03-30T01:56:46.180Z,25.63
2019-03-30T01:59:34.735Z,23.73
2019-03-30T02:02:04.780Z,26.17
2019-03-30T02:04:34.669Z,30.13
2019-03-30T02:07:04.452Z,29.83
2019-03-30T02:09:37.617Z,30.37
2019-03-30T02:12:07.561Z,28.03
2019-03-30T02:14:37.328Z,27.20
2019-03-30T02:17:07.151Z,28.70
2019-03-30T02:19:36.967Z,27.47
2019-03-30T02:22:06.744Z,25.10
2019-03-30T02:24:36.713Z,27.93
2019-03-30T02:27:06.488Z,26.67
2019-03-30T02:29:36.336Z,29.50
2019-03-30T02:32:06.310Z,27.63
2019-03-30T02:34:36.206Z,20.53
2019-03-30T02:37:06.049Z,19.30
2019-03-30T02:39:35.915Z,22.07
2019-03-30T02:42:05.821Z,21.70
2019-03-30T02:44:35.684Z,20.43
2019-03-30T02:47:05.571Z,20.40
2019-03-30T02:49:35.663Z,19.73
2019-03-30T02:52:06.820Z,18.70
2019-03-30T02:54:36.698Z,16.13
2019-03-30T02:57:06.439Z,16.20
2019-03-30T02:59:36.230Z,16.43
2019-03-30T03:02:06.043Z,16.00
2019-03-30T03:04:35.791Z,14.40
2019-03-30T03:07:05.547Z,15.77
2019-03-30T03:09:35.360Z,14.03
2019-03-30T03:12:12.513Z,14.77
2019-03-30T03:14:42.477Z,15.37
2019-03-30T03:17:12.304Z,16.23
2019-03-30T03:19:42.040Z,16.47
2019-03-30T03:22:29.110Z,13.33
2019-03-30T03:24:58.849Z,14.73
2019-03-30T03:27:28.606Z,14.73
2019-03-30T03:29:58.561Z,13.90
2019-03-30T03:32:28.396Z,14.93
2019-03-30T03:34:58.220Z,13.40
2019-03-30T03:37:43.112Z,15.30
2019-03-30T03:39:59.652Z,13.80
2019-03-30T03:42:29.704Z,15.83
2019-03-30T03:44:59.899Z,14.93
2019-03-30T03:47:29.874Z,15.40
2019-03-30T03:49:59.729Z,15.07
2019-03-30T03:52:29.820Z,13.47
2019-03-30T03:55:00.590Z,17.00
2019-03-30T03:57:52.319Z,13.23
2019-03-30T04:00:22.073Z,16.07
2019-03-30T04:02:53.774Z,13.13
2019-03-30T04:05:24.851Z,14.17
2019-03-30T04:07:56.516Z,15.73
2019-03-30T04:10:29.729Z,16.30
2019-03-30T04:13:06.641Z,14.80
2019-03-30T04:15:33.417Z,17.07
2019-03-30T04:18:03.184Z,12.90
2019-03-30T04:20:32.964Z,17.70
2019-03-30T04:23:02.784Z,15.07
2019-03-30T04:25:32.566Z,16.93
2019-03-30T04:28:02.650Z,15.97
2019-03-30T04:30:32.410Z,14.93
2019-03-30T04:33:02.189Z,17.67
2019-03-30T04:35:31.970Z,16.47
2019-03-30T04:38:01.763Z,17.53
2019-03-30T04:40:31.607Z,14.37
2019-03-30T04:43:01.472Z,16.87
2019-03-30T04:45:31.341Z,16.40
2019-03-30T04:48:01.119Z,14.93
2019-03-30T04:50:31.091Z,14.73
2019-03-30T04:53:00.922Z,16.03
2019-03-30T04:55:30.669Z,15.13
2019-03-30T04:58:00.474Z,16.00
2019-03-30T05:00:30.354Z,15.97
2019-03-30T05:03:00.138Z,16.33
2019-03-30T05:05:29.926Z,14.90
2019-03-30T05:07:59.850Z,14.37
2019-03-30T05:10:29.624Z,14.77
2019-03-30T05:12:59.406Z,12.53
2019-03-30T05:15:29.150Z,15.33
2019-03-30T05:17:58.981Z,12.23
2019-03-30T05:20:28.810Z,17.00
2019-03-30T05:22:58.565Z,15.27
2019-03-30T05:25:28.383Z,14.80
2019-03-30T05:27:58.172Z,15.23
2019-03-30T05:30:27.922Z,17.50
2019-03-30T05:33:05.462Z,16.20
2019-03-30T05:35:29.159Z,15.20
2019-03-30T05:38:01.443Z,16.10
2019-03-30T05:40:30.536Z,17.20
2019-03-30T05:43:00.373Z,17.80
2019-03-30T05:45:30.131Z,16.60
2019-03-30T05:47:59.887Z,13.80
2019-03-30T05:50:29.651Z,13.60
2019-03-30T05:52:59.458Z,17.10
2019-03-30T05:55:29.665Z,14.20
2019-03-30T05:57:59.486Z,16.20
2019-03-30T06:00:29.349Z,15.10
2019-03-30T06:02:59.281Z,15.00
2019-03-30T06:05:29.047Z,16.77
2019-03-30T06:07:59.326Z,15.83
2019-03-30T06:10:29.242Z,13.60
2019-03-30T06:12:59.163Z,11.57
2019-03-30T06:15:29.002Z,10.47
2019-03-30T06:17:58.812Z,14.90
2019-03-30T06:20:28.593Z,11.43
2019-03-30T06:23:01.029Z,10.63
2019-03-30T06:25:30.813Z,10.40
2019-03-30T06:28:00.665Z,12.70
2019-03-30T06:30:30.904Z,12.90
2019-03-30T06:33:00.965Z,11.00
2019-03-30T06:35:30.808Z,12.27
2019-03-30T06:38:00.570Z,13.57
2019-03-30T06:40:30.504Z,10.53
2019-03-30T06:43:00.407Z,9.33
2019-03-30T06:45:30.179Z,14.10
2019-03-30T06:48:00.068Z,11.57
2019-03-30T06:50:29.850Z,11.60
2019-03-30T06:53:06.880Z,12.93
2019-03-30T06:55:36.954Z,11.43
2019-03-30T06:58:06.714Z,11.80
2019-03-30T07:00:37.383Z,10.47
2019-03-30T07:03:10.598Z,12.23
2019-03-30T07:05:41.940Z,15.10
2019-03-30T07:08:16.076Z,13.43
2019-03-30T07:10:46.836Z,13.90
2019-03-30T07:13:16.908Z,12.73
2019-03-30T07:15:47.856Z,13.23
2019-03-30T07:18:18.630Z,16.13
2019-03-30T07:20:48.797Z,11.53
2019-03-30T07:23:18.610Z,10.33
2019-03-30T07:25:48.467Z,13.00
2019-03-30T07:28:18.338Z,12.53
2019-03-30T07:30:48.521Z,14.47
2019-03-30T07:33:18.301Z,11.83
2019-03-30T07:35:48.374Z,13.90
2019-03-30T07:38:21.299Z,12.87
2019-03-30T07:40:51.079Z,19.37
2019-03-30T07:43:20.901Z,13.97
2019-03-30T07:45:50.761Z,12.30
2019-03-30T07:48:20.702Z,14.40
2019-03-30T07:50:50.547Z,13.70
2019-03-30T07:53:26.742Z,15.80
2019-03-30T07:55:51.892Z,12.40
2019-03-30T07:58:21.684Z,15.17
2019-03-30T08:00:51.500Z,13.57
2019-03-30T08:03:21.341Z,14.13
2019-03-30T08:05:54.259Z,13.07
2019-03-30T08:08:22.803Z,12.57
2019-03-30T08:10:52.625Z,11.83
2019-03-30T08:13:22.422Z,13.20
2019-03-30T08:15:52.295Z,13.83
2019-03-30T08:18:22.110Z,12.30
2019-03-30T08:20:51.859Z,16.10
2019-03-30T08:23:21.892Z,12.47
2019-03-30T08:25:51.770Z,13.40
2019-03-30T08:28:21.574Z,14.13
2019-03-30T08:30:51.362Z,15.00
2019-03-30T08:33:21.231Z,13.80
2019-03-30T08:35:51.050Z,15.30
2019-03-30T08:38:21.235Z,13.50
2019-03-30T08:40:51.148Z,15.20
2019-03-30T08:43:21.003Z,15.80
2019-03-30T08:45:50.879Z,14.37
2019-03-30T08:48:20.709Z,15.03
2019-03-30T08:50:50.480Z,12.27
2019-03-30T08:53:20.249Z,13.43
2019-03-30T08:55:50.343Z,15.20
2019-03-30T08:58:20.184Z,16.60
2019-03-30T09:00:50.094Z,15.90
2019-03-30T09:03:19.982Z,14.33
2019-03-30T09:05:49.946Z,13.30
2019-03-30T09:08:19.814Z,15.17
2019-03-30T09:10:49.659Z,19.80
2019-03-30T09:13:19.403Z,15.77
2019-03-30T09:15:49.274Z,14.73
2019-03-30T09:18:19.060Z,17.60
2019-03-30T09:20:48.854Z,16.10
2019-03-30T09:23:18.725Z,15.40
2019-03-30T09:25:48.642Z,14.73
2019-03-30T09:28:18.583Z,17.97
2019-03-30T09:30:48.378Z,16.77
2019-03-30T09:33:18.147Z,14.47
2019-03-30T09:35:47.932Z,15.57
2019-03-30T09:38:17.890Z,14.70
2019-03-30T09:40:47.872Z,15.13
2019-03-30T09:43:17.689Z,16.57
2019-03-30T09:45:47.554Z,16.63
2019-03-30T09:48:17.388Z,17.77
2019-03-30T09:50:47.158Z,14.90
2019-03-30T09:53:17.029Z,16.43
2019-03-30T09:55:46.888Z,15.17
2019-03-30T09:58:16.718Z,15.00
2019-03-30T10:00:46.730Z,17.50
2019-03-30T10:03:16.809Z,17.20
2019-03-30T10:05:46.619Z,15.37
2019-03-30T10:08:16.380Z,15.50
2019-03-30T10:10:46.160Z,16.90
2019-03-30T10:13:16.064Z,18.23
2019-03-30T10:15:45.887Z,16.03
2019-03-30T10:18:15.673Z,16.23
2019-03-30T10:20:45.503Z,16.77
2019-03-30T10:23:15.264Z,15.43
2019-03-30T10:25:45.051Z,15.53
2019-03-30T10:28:14.837Z,18.00
2019-03-30T10:30:44.801Z,15.60
2019-03-30T10:33:14.614Z,16.50
2019-03-30T10:35:44.391Z,14.90
2019-03-30T10:38:14.465Z,18.43
2019-03-30T10:40:44.249Z,20.17
2019-03-30T10:43:14.158Z,19.20
2019-03-30T10:45:44.141Z,19.23
2019-03-30T10:48:13.934Z,18.50
2019-03-30T10:50:43.877Z,18.10
2019-03-30T10:53:13.712Z,17.37
2019-03-30T10:55:43.662Z,17.50
2019-03-30T10:58:13.522Z,20.60
2019-03-30T11:00:43.483Z,15.77
2019-03-30T11:03:13.518Z,21.07
2019-03-30T11:05:43.326Z,16.63
2019-03-30T11:08:13.200Z,19.97
2019-03-30T11:10:43.084Z,17.80
2019-03-30T11:13:13.018Z,19.00
2019-03-30T11:15:42.912Z,19.23
2019-03-30T11:18:12.802Z,21.93
2019-03-30T11:20:42.554Z,23.17
2019-03-30T11:23:12.468Z,18.10
2019-03-30T11:25:42.289Z,20.77
2019-03-30T11:28:12.112Z,19.20
2019-03-30T11:30:41.960Z,17.97
2019-03-30T11:33:11.976Z,18.50
2019-03-30T11:35:41.748Z,20.20
2019-03-30T11:38:11.570Z,18.03
2019-03-30T11:40:41.398Z,20.93
2019-03-30T11:43:11.190Z,19.83
2019-03-30T11:45:41.186Z,20.77
2019-03-30T11:48:10.985Z,19.43
2019-03-30T11:50:40.873Z,19.73
2019-03-30T11:53:12.055Z,21.93
2019-03-30T11:55:42.112Z,20.50
2019-03-30T11:58:12.108Z,21.13
2019-03-30T12:00:41.991Z,18.83
2019-03-30T12:03:11.821Z,20.50
2019-03-30T12:05:41.768Z,19.20
2019-03-30T12:08:11.607Z,20.37
2019-03-30T12:10:41.541Z,19.57
2019-03-30T12:13:11.937Z,19.33
2019-03-30T12:15:41.735Z,19.77
2019-03-30T12:18:11.561Z,18.57
2019-03-30T12:20:41.661Z,20.03
2019-03-30T12:23:12.479Z,18.10
2019-03-30T12:25:43.417Z,18.13
2019-03-30T12:28:13.236Z,17.20
2019-03-30T12:30:43.123Z,21.03
2019-03-30T12:33:12.968Z,18.97
2019-03-30T12:35:43.073Z,19.53
2019-03-30T12:38:12.862Z,17.50
2019-03-30T12:40:43.166Z,20.37
2019-03-30T12:43:13.319Z,24.33
2019-03-30T12:45:43.716Z,16.53
2019-03-30T12:48:13.539Z,15.07
2019-03-30T12:50:43.882Z,13.83
2019-03-30T12:53:13.756Z,16.27
2019-03-30T12:55:49.535Z,17.93
2019-03-30T12:58:15.034Z,19.03
2019-03-30T13:00:44.877Z,19.27
2019-03-30T13:03:14.903Z,16.13
2019-03-30T13:05:44.758Z,16.13
2019-03-30T13:08:14.692Z,15.97
2019-03-30T13:10:45.552Z,17.30
2019-03-30T13:13:15.581Z,19.07
2019-03-30T13:15:45.469Z,15.20
2019-03-30T13:18:15.201Z,14.60
2019-03-30T13:20:45.131Z,16.43
2019-03-30T13:23:15.062Z,14.37
2019-03-30T13:25:45.063Z,18.27
2019-03-30T13:28:15.072Z,18.00
2019-03-30T13:30:44.983Z,18.43
2019-03-30T13:33:14.896Z,20.10
2019-03-30T13:35:44.655Z,15.20
2019-03-30T13:38:14.505Z,15.07
2019-03-30T13:40:44.440Z,14.23
2019-03-30T13:43:14.199Z,15.03
2019-03-30T13:45:44.059Z,14.47
2019-03-30T13:48:13.848Z,16.20
2019-03-30T13:50:43.692Z,18.47
2019-03-30T13:53:13.583Z,15.57
2019-03-30T13:55:43.460Z,14.13
2019-03-30T13:58:13.650Z,16.27
2019-03-30T14:00:43.580Z,15.13
2019-03-30T14:03:13.441Z,20.20
2019-03-30T14:05:44.014Z,16.87
2019-03-30T14:08:13.822Z,16.63
2019-03-30T14:10:43.613Z,15.70
2019-03-30T14:13:13.418Z,16.13
2019-03-30T14:15:43.358Z,16.80
2019-03-30T14:18:13.354Z,18.03
2019-03-30T14:20:43.220Z,19.30
2019-03-30T14:23:13.048Z,15.93
2019-03-30T14:25:42.879Z,17.10
2019-03-30T14:28:12.783Z,16.43
2019-03-30T14:30:42.619Z,15.37
2019-03-30T14:33:12.423Z,16.03
2019-03-30T14:35:43.843Z,17.37
2019-03-30T14:38:13.950Z,23.57
2019-03-30T14:40:43.734Z,15.73
2019-03-30T14:43:13.511Z,19.27
2019-03-30T14:45:43.289Z,16.10
2019-03-30T14:48:13.114Z,17.90
2019-03-30T14:50:43.018Z,18.10
2019-03-30T14:53:12.969Z,19.90
2019-03-30T14:55:42.914Z,19.33
2019-03-30T14:58:12.855Z,16.10
2019-03-30T15:00:42.752Z,17.90
2019-03-30T15:03:13.071Z,17.20
2019-03-30T15:05:42.916Z,12.60
2019-03-30T15:08:12.812Z,15.63
2019-03-30T15:10:42.672Z,15.03
2019-03-30T15:13:12.490Z,15.57
2019-03-30T15:15:42.326Z,18.87
2019-03-30T15:18:12.369Z,16.67
2019-03-30T15:20:42.229Z,19.27
2019-03-30T15:23:12.256Z,14.63
2019-03-30T15:25:42.080Z,14.23
2019-03-30T15:28:12.112Z,14.43
2019-03-30T15:30:41.852Z,13.60
2019-03-30T15:33:11.644Z,18.00
2019-03-30T15:35:41.511Z,14.63
2019-03-30T15:38:11.592Z,14.90
2019-03-30T15:40:41.484Z,13.63
2019-03-30T15:43:11.387Z,15.67
2019-03-30T15:45:41.137Z,15.57
2019-03-30T15:48:11.098Z,14.93
2019-03-30T15:50:40.979Z,14.70
2019-03-30T15:53:10.857Z,14.43
2019-03-30T15:55:40.645Z,15.50
2019-03-30T15:58:10.731Z,12.97
2019-03-30T16:00:40.785Z,15.53
2019-03-30T16:03:10.661Z,19.03
2019-03-30T16:05:41.553Z,18.00
2019-03-30T16:08:11.457Z,17.43
2019-03-30T16:10:41.225Z,18.33
2019-03-30T16:13:14.417Z,16.37
2019-03-30T16:15:44.545Z,19.80
2019-03-30T16:18:14.475Z,17.70
2019-03-30T16:20:44.329Z,23.80
2019-03-30T16:23:14.286Z,19.53
2019-03-30T16:25:44.272Z,26.17
2019-03-30T16:28:14.845Z,22.57
2019-03-30T16:30:44.689Z,23.07
2019-03-30T16:33:14.648Z,21.90
2019-03-30T16:35:44.592Z,52.33
2019-03-30T16:38:14.436Z,22.70
2019-03-30T16:40:45.731Z,24.83
2019-03-30T16:43:15.671Z,23.70
2019-03-30T16:45:47.968Z,26.27
2019-03-30T16:48:17.913Z,26.63
2019-03-30T16:50:48.948Z,27.47
2019-03-30T16:53:18.940Z,29.10
2019-03-30T16:55:49.039Z,30.33
2019-03-30T16:58:18.893Z,28.83
2019-03-30T17:00:56.410Z,35.67
2019-03-30T17:03:20.268Z,51.00
2019-03-30T17:05:50.208Z,42.60
2019-03-30T17:08:20.016Z,35.27
2019-03-30T17:10:49.864Z,44.97
2019-03-30T17:13:20.038Z,35.33
2019-03-30T17:15:51.996Z,41.23
2019-03-30T17:18:22.015Z,45.30
2019-03-30T17:20:51.918Z,71.13
2019-03-30T17:23:21.720Z,42.30
2019-03-30T17:25:51.664Z,43.87
2019-03-30T17:30:57.340Z,46.83
2019-03-30T17:33:27.577Z,51.60
2019-03-30T17:35:57.463Z,79.47
2019-03-30T17:38:27.343Z,40.93
2019-03-30T17:40:57.250Z,37.93
2019-03-30T17:43:27.183Z,41.67
2019-03-30T17:45:56.957Z,46.80
2019-03-30T17:48:26.833Z,39.67
2019-03-30T17:50:58.409Z,37.57
2019-03-30T17:53:28.306Z,31.13
2019-03-30T17:56:01.734Z,124.83
2019-03-30T17:58:30.022Z,109.30
2019-03-30T18:00:59.876Z,73.30
2019-03-30T18:03:29.664Z,47.37
2019-03-30T18:05:59.440Z,43.93
2019-03-30T18:08:29.268Z,40.60
2019-03-30T18:10:59.341Z,41.03
2019-03-30T18:13:29.190Z,39.17
2019-03-30T18:15:59.010Z,38.43
2019-03-30T18:18:28.893Z,39.17
2019-03-30T18:20:58.716Z,43.20
2019-03-30T18:23:34.626Z,51.30
2019-03-30T18:26:04.777Z,56.57
2019-03-30T18:28:34.640Z,57.43
2019-03-30T18:31:04.615Z,58.67
2019-03-30T18:33:34.722Z,61.47
2019-03-30T18:36:07.944Z,62.33
2019-03-30T18:38:39.935Z,65.63
2019-03-30T18:41:10.926Z,64.83
2019-03-30T18:43:42.392Z,69.60
2019-03-30T18:46:12.323Z,75.60
2019-03-30T18:48:42.232Z,73.67
2019-03-30T18:51:14.873Z,64.37
2019-03-30T18:54:04.808Z,70.13
2019-03-30T18:56:34.666Z,72.63
2019-03-30T18:59:04.441Z,75.20
2019-03-30T19:01:35.360Z,69.70
2019-03-30T19:04:05.607Z,71.77
2019-03-30T19:06:36.213Z,72.20
2019-03-30T19:09:08.430Z,73.57
2019-03-30T19:11:40.058Z,70.80
2019-03-30T19:14:12.056Z,69.13
2019-03-30T19:16:42.131Z,76.43
2019-03-30T19:19:12.529Z,75.57
2019-03-30T19:21:42.898Z,75.87
2019-03-30T19:24:12.793Z,78.07
2019-03-30T19:26:42.730Z,77.43
2019-03-30T19:29:12.769Z,79.30
2019-03-30T19:31:42.752Z,75.23
2019-03-30T19:34:12.870Z,70.73
2019-03-30T19:36:42.895Z,68.30
2019-03-30T19:39:12.909Z,75.17
2019-03-30T19:41:42.892Z,75.73
2019-03-30T19:44:12.738Z,72.70
2019-03-30T19:46:43.017Z,72.93
2019-03-30T19:49:13.117Z,75.43
2019-03-30T19:51:42.948Z,72.40
2019-03-30T19:54:14.306Z,71.20
2019-03-30T19:56:44.476Z,69.03
2019-03-30T19:59:14.554Z,76.77
2019-03-30T20:01:44.678Z,77.33
2019-03-30T20:04:14.726Z,76.57
2019-03-30T20:06:44.588Z,73.13
2019-03-30T20:09:14.489Z,70.60
2019-03-30T20:11:44.466Z,70.90
2019-03-30T20:14:16.106Z,74.63
2019-03-30T20:16:45.920Z,69.83
2019-03-30T20:19:15.980Z,86.10
2019-03-30T20:21:47.500Z,74.73
2019-03-30T20:24:17.376Z,81.30
2019-03-30T20:26:50.310Z,72.57
2019-03-30T20:29:25.731Z,74.97
2019-03-30T20:31:51.748Z,71.03
2019-03-30T20:34:23.959Z,72.77
2019-03-30T20:36:53.768Z,75.40
2019-03-30T20:39:23.673Z,69.30
2019-03-30T20:41:54.741Z,70.07
2019-03-30T20:44:24.679Z,69.87
2019-03-30T20:46:54.611Z,71.50
2019-03-30T20:49:24.449Z,77.00
2019-03-30T20:51:54.511Z,75.77
2019-03-30T20:54:24.375Z,73.17
2019-03-30T20:56:54.286Z,71.17
2019-03-30T20:59:38.857Z,74.63
2019-03-30T21:02:00.147Z,71.27
2019-03-30T21:04:27.812Z,75.20
2019-03-30T21:06:57.769Z,82.13
2019-03-30T21:09:27.637Z,75.90
2019-03-30T21:11:57.579Z,76.23
2019-03-30T21:14:27.422Z,78.63
2019-03-30T21:16:57.258Z,74.17
2019-03-30T21:19:27.141Z,76.37
2019-03-30T21:21:57.250Z,85.13
2019-03-30T21:24:27.183Z,78.73
2019-03-30T21:26:57.060Z,85.70
2019-03-30T21:29:26.850Z,85.53
2019-03-30T21:31:56.655Z,86.30
2019-03-30T21:34:26.466Z,77.63
2019-03-30T21:36:56.446Z,80.73
2019-03-30T21:39:26.320Z,80.10
2019-03-30T21:41:56.279Z,76.03
2019-03-30T21:44:26.232Z,79.93
2019-03-30T21:46:56.109Z,79.73
2019-03-30T21:49:26.031Z,77.97
2019-03-30T21:51:55.949Z,86.20
2019-03-30T21:54:25.811Z,81.50
2019-03-30T21:56:55.732Z,94.80
2019-03-30T21:59:25.740Z,82.63
2019-03-30T22:01:55.582Z,85.70
2019-03-30T22:04:25.472Z,89.10
2019-03-30T22:06:55.577Z,77.77
2019-03-30T22:09:25.797Z,78.63
2019-03-30T22:11:55.727Z,81.07
2019-03-30T22:14:25.530Z,77.73
2019-03-30T22:16:55.619Z,80.30
2019-03-30T22:19:25.592Z,89.20
2019-03-30T22:21:55.597Z,81.20
2019-03-30T22:24:25.413Z,88.37
2019-03-30T22:26:55.298Z,92.07
2019-03-30T22:29:25.099Z,81.17
2019-03-30T22:31:54.907Z,84.47
2019-03-30T22:34:24.694Z,85.23
2019-03-30T22:36:54.652Z,84.07
2019-03-30T22:39:24.675Z,87.57
2019-03-30T22:41:54.506Z,89.20
2019-03-30T22:44:24.305Z,79.93
2019-03-30T22:46:54.289Z,77.87
2019-03-30T22:49:24.262Z,83.73
2019-03-30T22:51:54.217Z,83.33
2019-03-30T22:54:24.187Z,85.63
2019-03-30T22:56:54.234Z,82.80
2019-03-30T22:59:24.132Z,82.43
2019-03-30T23:01:54.049Z,77.50
2019-03-30T23:04:23.887Z,70.53
2019-03-30T23:06:54.032Z,81.43
2019-03-30T23:09:23.906Z,79.37
2019-03-30T23:11:53.860Z,75.83
2019-03-30T23:14:23.859Z,77.17
2019-03-30T23:16:53.676Z,73.50
2019-03-30T23:19:23.452Z,79.47
2019-03-30T23:21:53.462Z,84.23
2019-03-30T23:24:23.307Z,80.87
2019-03-30T23:26:53.088Z,80.50
2019-03-30T23:29:23.000Z,79.77
2019-03-30T23:31:52.902Z,88.47
2019-03-30T23:34:22.757Z,78.53
2019-03-30T23:36:52.624Z,81.20
2019-03-30T23:39:22.397Z,84.53
2019-03-30T23:41:52.462Z,78.93
2019-03-30T23:44:22.417Z,87.53
2019-03-30T23:46:52.204Z,80.43
2019-03-30T23:49:22.015Z,94.30
2019-03-30T23:51:51.996Z,84.07
2019-03-30T23:54:22.047Z,87.80
2019-03-30T23:56:51.836Z,86.33
2019-03-30T23:59:21.705Z,86.33
